Boo Sonier — WDG3281 — position and weather

sailwx.info

Track history (hours):
 
Tides and Currents Weather Stations Pressure Air Temp Water Temp Dewpoint Dewpoint Depression Visibility Wind Speed Wind Dir Waves Ship Positions

Boo Sonier

Owner: LeBeouf Bros. Towing, LLC, Houma, LA. More information available from US FCC via Universal Licensing System and Coast Guard Vessel Documentation Center.

Last reported at 2014-Nov-13 15:17 UTC. Time now 2014-Nov-23 13:35 UTC.
Position N 29°60' W 089°59'.
Warning: this ship's position is 9 days out of date.

Length 21 m.

Type: Tug. MMSI: 367524420.

Date/timePositionNaut miles runAvg speedWind from/ knotsBaromVisibWave heightAir tempDewpointWater temp
2014-Nov-13 15:17N 29°60' W 089°59'  
2014-Nov-11 05:17N 29°60' W 089°59'  
2014-Nov-05 04:15N 29°34' W 090°30'3 4.6
2014-Nov-05 03:33N 29°34' W 090°33'27 3.9
2014-Nov-04 20:31N 29°38' W 091°05'2 1.5
2014-Nov-04 19:25N 29°38' W 091°06'0 0.0
2014-Nov-04 18:28N 29°38' W 091°06'0 0.2
2014-Nov-04 17:19N 29°38' W 091°06'3 4.1
2014-Nov-04 16:33N 29°41' W 091°09'4 4.0
2014-Nov-04 15:33N 29°41' W 091°13'0 0.5
2014-Nov-04 14:33N 29°40' W 091°14'1 0.5
2014-Nov-04 13:32N 29°40' W 091°14'0 0.0
2014-Nov-04 12:32N 29°40' W 091°14'0 0.1
2014-Nov-04 11:31N 29°40' W 091°14'0 0.3
2014-Nov-04 10:33N 29°40' W 091°14'5 4.5
2014-Nov-04 09:33N 29°38' W 091°19'  
Track history (hours):
 
Tides and Currents Weather Stations Pressure Air Temp Water Temp Dewpoint Dewpoint Depression Visibility Wind Speed Wind Dir Waves Ship Positions

Boo Sonier

Owner: LeBeouf Bros. Towing, LLC, Houma, LA. More information available from US FCC via Universal Licensing System and Coast Guard Vessel Documentation Center.

Last reported at 2014-Nov-13 15:17 UTC. Time now 2014-Nov-23 13:35 UTC.
Position N 29°60' W 089°59'.
Warning: this ship's position is 9 days out of date.

Length 21 m.

Type: Tug. MMSI: 367524420.

Date/timePositionNaut miles runAvg speedWind from/ knotsBaromVisibWave heightAir tempDewpointWater temp
2014-Nov-13 15:17N 29°60' W 089°59'  
2014-Nov-11 05:17N 29°60' W 089°59'  
2014-Nov-05 04:15N 29°34' W 090°30'3 4.6
2014-Nov-05 03:33N 29°34' W 090°33'27 3.9
2014-Nov-04 20:31N 29°38' W 091°05'2 1.5
2014-Nov-04 19:25N 29°38' W 091°06'0 0.0
2014-Nov-04 18:28N 29°38' W 091°06'0 0.2
2014-Nov-04 17:19N 29°38' W 091°06'3 4.1
2014-Nov-04 16:33N 29°41' W 091°09'4 4.0
2014-Nov-04 15:33N 29°41' W 091°13'0 0.5
2014-Nov-04 14:33N 29°40' W 091°14'1 0.5
2014-Nov-04 13:32N 29°40' W 091°14'0 0.0
2014-Nov-04 12:32N 29°40' W 091°14'0 0.1
2014-Nov-04 11:31N 29°40' W 091°14'0 0.3
2014-Nov-04 10:33N 29°40' W 091°14'5 4.5
2014-Nov-04 09:33N 29°38' W 091°19'  

Dump ship's entire track history